Time;durP1;ratioP1;P1;durP2;ratioP2;P2;SDS_P1;SDS_P2;PMS_P1;PMS_P2;Temp;Humidity;BMP_temperature;BMP_pressure;BME280_temperature;BME280_humidity;BME280_pressure;Samples;Min_cycle;Max_cycle;Signal;HPM_P1;HPM_P2
2022/05/05 00:01:18;;;;;;;1.08;0.85;;;21.20;45.50;;;;;;6252836;28;20027;-66
2022/05/05 00:04:21;;;;;;;0.60;0.60;;;21.30;45.60;;;;;;6268623;28;20028;-67
2022/05/05 00:07:22;;;;;;;0.60;0.60;;;21.30;45.50;;;;;;6270664;28;20021;-67
2022/05/05 00:17:04;;;;;;;0.70;0.70;;;21.30;45.50;;;;;;6270757;28;20407;-68
2022/05/05 00:20:05;;;;;;;0.80;0.80;;;21.30;45.40;;;;;;6270498;28;20032;-67
2022/05/05 00:23:05;;;;;;;0.68;0.68;;;21.30;45.30;;;;;;6270597;28;20032;-67
2022/05/05 00:26:06;;;;;;;1.08;0.60;;;21.30;45.50;;;;;;6270215;28;20052;-67
2022/05/05 00:29:07;;;;;;;1.30;0.73;;;21.30;45.20;;;;;;6270012;28;20021;-67
2022/05/05 00:32:08;;;;;;;0.70;0.70;;;21.30;45.20;;;;;;6270004;28;20071;-66
2022/05/05 00:35:08;;;;;;;1.05;0.80;;;21.30;45.20;;;;;;6270144;28;20027;-67
2022/05/05 00:38:09;;;;;;;1.17;0.90;;;21.30;45.10;;;;;;6269635;28;20154;-67
2022/05/05 00:41:09;;;;;;;0.70;0.70;;;21.30;45.20;;;;;;6269958;28;20017;-67
2022/05/05 00:44:11;;;;;;;1.10;0.90;;;21.30;45.20;;;;;;6269969;28;20628;-67
2022/05/05 00:47:16;;;;;;;0.85;0.77;;;21.30;45.10;;;;;;6269697;28;20025;-67
2022/05/05 00:50:20;;;;;;;1.20;0.82;;;21.30;45.10;;;;;;6269792;28;20427;-66
2022/05/05 00:53:21;;;;;;;0.80;0.80;;;21.30;45.10;;;;;;6269546;28;20112;-67
2022/05/05 00:56:23;;;;;;;0.70;0.70;;;21.30;45.00;;;;;;6269515;28;20511;-67
2022/05/05 00:59:24;;;;;;;1.05;0.70;;;21.30;45.10;;;;;;6269237;28;20053;-67
2022/05/05 01:02:24;;;;;;;0.60;0.60;;;21.40;45.00;;;;;;6269210;28;20510;-67
2022/05/05 01:05:27;;;;;;;0.68;0.68;;;21.30;45.00;;;;;;6269364;28;20032;-67
2022/05/05 01:08:27;;;;;;;0.82;0.80;;;21.30;44.90;;;;;;6251292;28;20045;-66
2022/05/05 01:11:29;;;;;;;0.80;0.80;;;21.30;45.10;;;;;;6268938;28;20024;-67
2022/05/05 01:14:30;;;;;;;0.85;0.70;;;21.40;45.00;;;;;;6269408;28;20024;-67
2022/05/05 01:17:31;;;;;;;1.00;0.90;;;21.30;44.80;;;;;;6268826;28;20550;-66
2022/05/05 01:20:31;;;;;;;0.75;0.63;;;21.30;45.00;;;;;;6268821;28;20047;-66
2022/05/05 01:23:32;;;;;;;0.90;0.80;;;21.30;44.80;;;;;;6268997;28;20482;-67
2022/05/05 01:30:09;;;;;;;;;;;21.30;44.80;;;;;;6170725;28;20461;-67
2022/05/05 01:33:17;;;;;;;0.68;0.68;;;21.30;44.80;;;;;;6268596;28;19931;-66
2022/05/05 01:36:18;;;;;;;0.73;0.70;;;21.40;44.80;;;;;;6250758;28;20032;-67
2022/05/05 01:39:18;;;;;;;0.70;0.70;;;21.30;44.70;;;;;;6250727;28;20104;-67
2022/05/05 01:42:19;;;;;;;0.80;0.80;;;21.30;44.80;;;;;;6268781;28;20078;-67
2022/05/05 01:45:20;;;;;;;0.90;0.75;;;21.40;44.80;;;;;;6268375;28;20021;-67
2022/05/05 01:48:20;;;;;;;0.68;0.63;;;21.40;44.70;;;;;;6268760;28;20029;-67
2022/05/05 01:51:23;;;;;;;0.80;0.77;;;21.40;44.70;;;;;;6268047;28;20028;-67
2022/05/05 01:54:23;;;;;;;0.68;0.68;;;21.40;44.80;;;;;;6268682;28;20192;-66
2022/05/05 01:57:24;;;;;;;1.08;0.70;;;21.40;44.70;;;;;;6268298;28;20036;-67
2022/05/05 02:00:25;;;;;;;0.90;0.80;;;21.40;44.60;;;;;;6268197;28;20025;-67
2022/05/05 02:03:26;;;;;;;0.85;0.82;;;21.40;44.60;;;;;;6268260;28;20414;-67
2022/05/05 02:06:26;;;;;;;0.70;0.70;;;21.40;44.60;;;;;;6268342;28;20450;-67
2022/05/05 02:09:27;;;;;;;0.82;0.60;;;21.40;44.60;;;;;;6268127;28;20582;-67
2022/05/05 02:12:32;;;;;;;0.70;0.65;;;21.40;44.60;;;;;;6268237;28;20025;-68
2022/05/05 02:15:34;;;;;;;0.80;0.70;;;21.40;44.60;;;;;;6250452;28;20029;-67
2022/05/05 02:18:35;;;;;;;0.73;0.73;;;21.40;44.50;;;;;;6268020;28;20492;-67
2022/05/05 02:21:36;;;;;;;1.10;0.70;;;21.40;44.50;;;;;;6268064;28;20028;-67
2022/05/05 02:24:37;;;;;;;1.95;0.95;;;21.40;44.50;;;;;;6267685;28;20023;-67
2022/05/05 02:27:51;;;;;;;0.57;0.57;;;21.40;44.40;;;;;;6270355;28;20021;-67
2022/05/05 02:30:51;;;;;;;0.90;0.77;;;21.40;44.50;;;;;;6272787;28;20094;-67
2022/05/05 02:33:52;;;;;;;0.80;0.70;;;21.40;44.40;;;;;;6272860;28;20369;-67
2022/05/05 02:40:11;;;;;;;0.82;0.80;;;21.40;44.40;;;;;;6272863;28;20036;-67
2022/05/05 02:43:12;;;;;;;0.52;0.52;;;21.40;44.30;;;;;;6254692;28;20582;-67
2022/05/05 02:46:13;;;;;;;1.20;0.80;;;21.40;44.40;;;;;;6254469;28;20021;-66
2022/05/05 02:49:14;;;;;;;0.70;0.70;;;21.40;44.30;;;;;;6272503;28;20037;-67
2022/05/05 02:52:14;;;;;;;1.45;0.73;;;21.40;44.40;;;;;;6254306;28;20026;-67
2022/05/05 02:55:15;;;;;;;0.75;0.70;;;21.40;44.40;;;;;;6272542;28;20098;-66
2022/05/05 02:58:16;;;;;;;1.00;0.70;;;21.40;44.40;;;;;;6272127;28;20376;-67
2022/05/05 03:01:16;;;;;;;0.75;0.70;;;21.40;44.40;;;;;;6272544;28;20029;-67
2022/05/05 03:04:17;;;;;;;0.65;0.60;;;21.40;44.40;;;;;;6253962;28;20021;-67
2022/05/05 03:07:18;;;;;;;0.77;0.77;;;21.40;44.40;;;;;;6254506;28;20404;-67
2022/05/05 03:10:18;;;;;;;1.23;0.90;;;21.40;44.30;;;;;;6272051;28;20041;-67
2022/05/05 03:13:19;;;;;;;0.93;0.60;;;21.40;44.40;;;;;;6271981;28;20052;-67
2022/05/05 03:16:20;;;;;;;1.05;0.75;;;21.40;44.30;;;;;;6271743;28;20033;-67
2022/05/05 03:19:21;;;;;;;0.82;0.70;;;21.40;44.30;;;;;;6271701;28;21784;-66
2022/05/05 03:22:22;;;;;;;1.10;0.80;;;21.40;44.30;;;;;;6271591;28;20033;-67
2022/05/05 03:25:23;;;;;;;1.00;0.80;;;21.40;44.30;;;;;;6271462;28;20099;-67
2022/05/05 03:28:24;;;;;;;0.60;0.60;;;21.40;44.30;;;;;;6271573;28;20691;-67
2022/05/05 03:31:24;;;;;;;0.75;0.70;;;21.40;44.30;;;;;;6253563;28;20747;-67
2022/05/05 03:34:25;;;;;;;0.52;0.52;;;21.50;44.20;;;;;;6253290;28;20032;-67
2022/05/05 03:37:30;;;;;;;1.00;0.70;;;21.40;44.30;;;;;;6271643;28;20563;-67
2022/05/05 03:40:31;;;;;;;;;;;21.40;44.30;;;;;;6252839;28;20017;-67
2022/05/05 03:43:33;;;;;;;0.95;0.70;;;21.40;44.10;;;;;;6271365;28;19912;-67
2022/05/05 03:46:34;;;;;;;0.80;0.80;;;21.40;44.20;;;;;;6270716;28;20025;-66
2022/05/05 03:49:35;;;;;;;1.38;0.90;;;21.40;44.20;;;;;;6253430;28;20029;-67
2022/05/05 03:52:35;;;;;;;0.70;0.70;;;21.40;44.10;;;;;;6270866;28;20060;-68
2022/05/05 03:55:36;;;;;;;0.70;0.70;;;21.40;44.20;;;;;;6271061;28;20064;-67
2022/05/05 03:58:36;;;;;;;1.13;0.73;;;21.40;44.20;;;;;;6270683;28;20498;-67
2022/05/05 04:01:37;;;;;;;1.10;0.80;;;21.40;44.10;;;;;;6270706;28;20059;-67
2022/05/05 04:04:38;;;;;;;0.75;0.70;;;21.40;44.80;;;;;;6269015;28;20025;-67
2022/05/05 04:07:38;;;;;;;0.82;0.82;;;21.40;44.10;;;;;;6270452;28;20029;-68
2022/05/05 04:10:39;;;;;;;0.57;0.57;;;21.50;44.10;;;;;;6270174;28;20053;-68
2022/05/05 04:13:39;;;;;;;0.88;0.85;;;21.50;44.10;;;;;;6252295;28;20431;-67
2022/05/05 04:16:41;;;;;;;0.80;0.70;;;21.50;44.10;;;;;;6270321;28;20111;-67
2022/05/05 04:19:41;;;;;;;1.40;0.85;;;21.40;44.00;;;;;;6270302;28;20020;-67
2022/05/05 04:22:42;;;;;;;0.60;0.60;;;21.50;44.20;;;;;;6270232;28;20029;-67
2022/05/05 04:25:44;;;;;;;0.90;0.90;;;21.40;44.00;;;;;;6269540;28;20021;-68
2022/05/05 04:28:48;;;;;;;0.68;0.68;;;21.50;44.10;;;;;;6270198;28;20094;-66
2022/05/05 04:31:49;;;;;;;0.82;0.77;;;21.40;44.00;;;;;;6269851;28;20028;-67
2022/05/05 04:34:49;;;;;;;0.75;0.75;;;21.40;43.90;;;;;;6269902;28;20028;-67
2022/05/05 04:37:50;;;;;;;0.80;0.77;;;21.40;44.00;;;;;;6269594;28;20032;-67
2022/05/05 04:40:50;;;;;;;0.70;0.57;;;21.50;44.00;;;;;;6269853;28;20428;-67
2022/05/05 04:43:51;;;;;;;0.80;0.60;;;21.50;44.00;;;;;;6269459;28;20558;-66
2022/05/05 04:46:51;;;;;;;0.95;0.80;;;21.50;44.00;;;;;;6269340;28;20028;-66
2022/05/05 04:49:55;;;;;;;0.70;0.68;;;21.50;44.00;;;;;;6251017;28;20056;-66
2022/05/05 04:52:55;;;;;;;1.33;0.60;;;21.50;43.90;;;;;;6269452;28;20474;-66
2022/05/05 04:55:56;;;;;;;0.70;0.70;;;21.50;43.90;;;;;;6268889;28;20029;-66
2022/05/05 04:58:56;;;;;;;1.45;0.95;;;21.50;43.90;;;;;;6268808;28;20100;-66
2022/05/05 05:01:57;;;;;;;0.70;0.70;;;21.50;43.90;;;;;;6268572;28;20062;-66
2022/05/05 05:04:58;;;;;;;0.60;0.60;;;21.50;43.90;;;;;;6269116;28;20109;-66
2022/05/05 05:07:58;;;;;;;0.50;0.50;;;21.50;43.90;;;;;;6268839;28;20056;-67
2022/05/05 05:10:59;;;;;;;0.85;0.65;;;21.50;43.90;;;;;;6267605;28;20024;-66
2022/05/05 05:13:59;;;;;;;0.63;0.52;;;21.50;43.90;;;;;;6268430;28;20025;-66
2022/05/05 05:17:00;;;;;;;1.25;0.90;;;21.50;43.90;;;;;;6259835;28;20028;-64
2022/05/05 05:20:01;;;;;;;0.60;0.57;;;21.50;43.90;;;;;;6259140;28;20059;-67
2022/05/05 05:23:01;;;;;;;3.80;0.82;;;21.50;43.80;;;;;;6236063;28;20368;-67
2022/05/05 05:26:02;;;;;;;0.70;0.60;;;21.50;43.90;;;;;;6266583;28;20043;-67
2022/05/05 05:29:03;;;;;;;0.93;0.80;;;21.50;43.90;;;;;;6249267;28;20095;-67
2022/05/05 05:32:04;;;;;;;1.15;0.70;;;21.50;43.90;;;;;;6249077;28;20116;-67
2022/05/05 05:35:05;;;;;;;1.13;0.80;;;21.50;43.70;;;;;;6249015;28;20032;-67
2022/05/05 05:38:06;;;;;;;0.73;0.73;;;21.50;43.70;;;;;;6267122;28;20017;-67
2022/05/05 05:41:08;;;;;;;1.38;0.60;;;21.50;43.80;;;;;;6249161;28;20483;-67
2022/05/05 05:44:09;;;;;;;0.60;0.60;;;21.50;43.80;;;;;;6265647;28;20087;-67
2022/05/05 05:47:12;;;;;;;0.57;0.57;;;21.50;43.90;;;;;;6266997;28;20757;-67
2022/05/05 05:50:13;;;;;;;0.70;0.60;;;21.40;45.40;;;;;;6248514;28;20078;-67
2022/05/05 05:53:13;;;;;;;0.95;0.75;;;21.20;45.90;;;;;;6266938;28;20025;-66
2022/05/05 05:56:14;;;;;;;0.63;0.60;;;21.20;46.20;;;;;;6267094;28;20122;-67
2022/05/05 05:59:14;;;;;;;0.60;0.52;;;21.10;46.40;;;;;;6247185;28;20021;-67
2022/05/05 06:05:34;;;;;;;0.70;0.63;;;21.10;46.90;;;;;;6268956;28;20033;-67
2022/05/05 06:08:34;;;;;;;0.85;0.65;;;21.10;47.00;;;;;;6269088;28;20095;-67
2022/05/05 06:11:35;;;;;;;0.95;0.80;;;21.10;47.10;;;;;;6261434;28;20033;-67
2022/05/05 06:14:36;;;;;;;3.05;1.10;;;21.00;47.20;;;;;;6226375;28;20029;-67
2022/05/05 06:17:37;;;;;;;0.77;0.68;;;21.00;47.30;;;;;;6242569;28;20026;-67
2022/05/05 06:20:37;;;;;;;1.02;0.70;;;21.00;47.30;;;;;;6244000;28;20048;-67
2022/05/05 06:23:38;;;;;;;1.05;0.80;;;21.00;47.40;;;;;;6260353;28;20018;-67
2022/05/05 06:26:39;;;;;;;1.95;0.80;;;21.00;47.40;;;;;;6268627;28;20021;-67
2022/05/05 06:29:39;;;;;;;0.77;0.73;;;21.00;47.60;;;;;;6267896;28;20451;-67
2022/05/05 06:32:40;;;;;;;1.02;0.80;;;21.00;47.60;;;;;;6265831;28;20136;-67
2022/05/05 06:35:41;;;;;;;0.63;0.55;;;20.90;47.40;;;;;;6267065;28;20029;-67
2022/05/05 06:38:42;;;;;;;0.90;0.70;;;21.00;47.50;;;;;;6268735;28;20057;-67
2022/05/05 06:41:43;;;;;;;0.98;0.70;;;20.90;47.50;;;;;;6267006;28;20021;-67
2022/05/05 06:44:44;;;;;;;0.90;0.80;;;20.90;47.60;;;;;;6268673;28;20092;-68
2022/05/05 06:47:44;;;;;;;1.05;0.85;;;20.90;47.60;;;;;;6267072;28;20048;-67
2022/05/05 06:50:45;;;;;;;0.70;0.70;;;20.90;47.70;;;;;;6268509;28;20395;-67
2022/05/05 06:53:45;;;;;;;0.80;0.70;;;20.90;47.70;;;;;;6268097;28;20083;-67
2022/05/05 06:56:46;;;;;;;0.63;0.60;;;20.90;47.70;;;;;;6267993;28;20021;-67
2022/05/05 06:59:46;;;;;;;0.60;0.60;;;20.90;47.70;;;;;;6250577;28;20372;-66
2022/05/05 07:02:47;;;;;;;0.68;0.57;;;20.90;47.80;;;;;;6268458;28;20052;-67
2022/05/05 07:05:48;;;;;;;1.05;0.70;;;20.90;47.70;;;;;;6269137;28;20021;-67
2022/05/05 07:12:07;;;;;;;1.05;0.70;;;20.90;47.80;;;;;;6269588;28;20453;-67
2022/05/05 07:15:08;;;;;;;1.83;1.05;;;20.90;47.80;;;;;;6273419;28;20099;-67
2022/05/05 07:18:09;;;;;;;0.98;0.70;;;20.90;47.80;;;;;;6273890;28;20025;-67
2022/05/05 07:21:10;;;;;;;1.42;0.90;;;20.90;47.80;;;;;;6288807;28;20510;-67
2022/05/05 07:24:11;;;;;;;1.23;1.00;;;20.90;47.80;;;;;;6272535;28;20082;-67
2022/05/05 07:27:11;;;;;;;0.85;0.77;;;20.90;47.90;;;;;;6273304;28;20035;-68
2022/05/05 07:30:13;;;;;;;1.23;1.00;;;20.90;47.90;;;;;;6267490;28;20022;-67
2022/05/05 07:33:14;;;;;;;1.25;0.90;;;20.90;48.00;;;;;;6230644;28;20034;-67
2022/05/05 07:36:14;;;;;;;1.30;0.93;;;20.90;48.00;;;;;;6248456;28;20026;-67
2022/05/05 07:39:15;;;;;;;0.88;0.70;;;20.90;48.00;;;;;;6247075;28;20076;-67
2022/05/05 07:42:16;;;;;;;1.67;1.10;;;20.90;48.00;;;;;;6248758;28;20029;-67
2022/05/05 07:45:17;;;;;;;2.05;1.00;;;20.90;48.20;;;;;;6248309;28;20022;-67
2022/05/05 07:48:19;;;;;;;1.55;0.85;;;20.90;48.10;;;;;;6230533;28;20026;-67
2022/05/05 07:51:20;;;;;;;1.33;1.02;;;20.80;48.10;;;;;;6233445;28;20403;-67
2022/05/05 07:54:38;;;;;;;1.48;0.80;;;20.90;48.20;;;;;;6254902;28;20040;-67
2022/05/05 07:57:44;;;;;;;1.33;0.75;;;20.90;48.20;;;;;;6272760;28;20396;-67
2022/05/05 08:00:44;;;;;;;0.90;0.90;;;20.90;48.20;;;;;;6272507;28;20029;-67
2022/05/05 08:03:45;;;;;;;1.35;1.00;;;20.90;48.20;;;;;;6272760;28;20372;-67
2022/05/05 08:06:45;;;;;;;1.05;0.90;;;20.80;48.10;;;;;;6254385;28;20166;-67
2022/05/05 08:09:46;;;;;;;3.60;0.90;;;20.90;48.20;;;;;;6254700;28;20496;-67
2022/05/05 08:12:47;;;;;;;1.35;0.90;;;20.80;48.20;;;;;;6272287;28;20037;-67
2022/05/05 08:15:48;;;;;;;1.42;0.98;;;20.80;48.20;;;;;;6273074;28;20136;-67
2022/05/05 08:18:49;;;;;;;2.13;0.90;;;20.80;48.20;;;;;;6272613;28;20418;-67
2022/05/05 08:21:50;;;;;;;1.50;0.90;;;20.80;48.20;;;;;;6255133;28;20025;-67
2022/05/05 08:28:28;;;;;;;1.23;0.90;;;20.80;48.30;;;;;;6272809;28;20033;-67
2022/05/05 08:31:29;;;;;;;1.42;1.00;;;20.80;48.30;;;;;;6272324;28;20456;-67
2022/05/05 08:34:30;;;;;;;2.03;0.88;;;20.80;48.30;;;;;;6254454;28;20028;-67
2022/05/05 08:37:30;;;;;;;2.70;0.98;;;20.80;48.30;;;;;;6272219;28;20029;-67
2022/05/05 08:40:34;;;;;;;1.17;0.90;;;20.80;48.30;;;;;;6272008;28;20109;-68
2022/05/05 08:43:35;;;;;;;1.27;0.93;;;20.80;48.40;;;;;;6272080;28;20486;-67
2022/05/05 08:46:39;;;;;;;1.60;1.35;;;20.80;48.40;;;;;;6254068;28;20029;-68
2022/05/05 08:49:53;;;;;;;1.02;0.70;;;20.80;48.30;;;;;;6272573;28;20100;-68
2022/05/05 08:52:54;;;;;;;0.60;0.60;;;20.80;48.40;;;;;;6272712;28;20021;-68
2022/05/05 08:56:03;;;;;;;0.88;0.80;;;20.80;48.40;;;;;;6237450;28;20053;-68
2022/05/05 08:59:05;;;;;;;2.33;0.85;;;20.80;48.50;;;;;;6248168;28;20037;-69
2022/05/05 09:02:10;;;;;;;0.70;0.70;;;20.80;48.50;;;;;;6247885;28;20383;-68
2022/05/05 09:05:11;;;;;;;1.10;0.88;;;20.80;48.50;;;;;;6245962;28;20038;-68
2022/05/05 09:08:33;;;;;;;1.02;0.82;;;20.80;48.50;;;;;;6247014;28;20041;-68
2022/05/05 09:11:34;;;;;;;0.90;0.80;;;20.80;48.50;;;;;;6246466;28;20041;-68
2022/05/05 09:14:36;;;;;;;1.10;0.90;;;20.80;48.50;;;;;;6246532;28;20416;-68
2022/05/05 09:17:37;;;;;;;1.20;0.77;;;20.80;48.60;;;;;;6245932;28;20499;-67
2022/05/05 09:20:38;;;;;;;0.93;0.80;;;20.80;48.50;;;;;;6245795;28;20023;-68
2022/05/05 09:27:13;;;;;;;0.85;0.63;;;20.80;48.60;;;;;;6269421;28;20033;-68
2022/05/05 09:30:14;;;;;;;1.13;0.80;;;20.80;48.60;;;;;;6263703;28;20641;-68
2022/05/05 09:33:17;;;;;;;0.95;0.73;;;20.80;48.70;;;;;;6235644;28;20610;-68
2022/05/05 09:36:28;;;;;;;0.70;0.70;;;20.80;48.60;;;;;;6268021;28;20388;-68
2022/05/05 09:39:35;;;;;;;1.15;1.00;;;20.70;48.50;;;;;;6268956;28;20028;-68
2022/05/05 09:42:36;;;;;;;0.70;0.60;;;20.80;48.70;;;;;;6261172;28;20025;-68
2022/05/05 09:45:37;;;;;;;1.00;0.80;;;20.80;48.70;;;;;;6268407;28;20032;-68
2022/05/05 09:48:37;;;;;;;0.75;0.63;;;20.80;48.70;;;;;;6269070;28;20029;-68
2022/05/05 09:57:39;;;;;;;1.45;0.93;;;20.80;48.70;;;;;;6251163;28;20020;-68
2022/05/05 09:58:35;;;;;;;0.90;0.60;;;20.80;48.70;;;;;;6269085;28;20040;-67
2022/05/05 10:01:36;;;;;;;0.85;0.75;;;20.80;48.70;;;;;;6269049;28;20053;-68
2022/05/05 10:04:39;;;;;;;1.40;0.88;;;20.80;48.80;;;;;;6272650;28;20036;-68
2022/05/05 10:07:44;;;;;;;1.10;0.77;;;20.80;48.70;;;;;;6251006;28;20029;-68
2022/05/05 10:10:45;;;;;;;1.40;0.65;;;20.80;48.80;;;;;;6269068;28;20102;-68
2022/05/05 10:13:49;;;;;;;0.70;0.70;;;20.80;48.70;;;;;;6269695;28;20031;-68
2022/05/05 10:16:51;;;;;;;0.68;0.65;;;20.80;48.90;;;;;;6270039;28;20025;-68
2022/05/05 10:19:52;;;;;;;0.57;0.52;;;20.80;48.80;;;;;;6252160;28;20029;-68
2022/05/05 10:23:21;;;;;;;0.85;0.70;;;20.80;48.80;;;;;;6270105;28;20021;-68
2022/05/05 10:26:26;;;;;;;1.42;0.73;;;20.70;48.80;;;;;;6269883;28;20021;-68
2022/05/05 10:29:40;;;;;;;0.88;0.70;;;20.70;48.80;;;;;;6250192;28;20039;-68
2022/05/05 10:32:41;;;;;;;0.93;0.80;;;20.70;48.80;;;;;;6245264;28;20326;-68
2022/05/05 10:35:47;;;;;;;0.57;0.57;;;20.70;48.80;;;;;;6245245;28;20272;-68
2022/05/05 10:38:49;;;;;;;1.45;0.70;;;20.70;49.50;;;;;;6244089;28;20037;-68
2022/05/05 10:41:52;;;;;;;7.07;0.90;;;20.70;48.90;;;;;;6226111;28;20045;-67
2022/05/05 10:45:10;;;;;;;24.58;1.50;;;20.70;49.00;;;;;;6263313;28;20028;-67
2022/05/05 10:48:12;;;;;;;12.25;1.10;;;20.90;49.30;;;;;;6269152;28;20067;-68
2022/05/05 10:51:12;;;;;;;13.15;1.13;;;21.00;49.20;;;;;;6272452;28;20040;-68
2022/05/05 10:54:25;;;;;;;5.07;1.05;;;21.00;48.80;;;;;;6272393;28;20391;-67
2022/05/05 10:57:25;;;;;;;3.65;0.70;;;21.00;48.80;;;;;;6272345;28;20530;-67
2022/05/05 11:00:43;;;;;;;11.02;1.10;;;20.90;49.10;;;;;;6254621;28;20025;-68
2022/05/05 11:04:06;;;;;;;2.95;0.70;;;21.00;49.30;;;;;;6272165;28;20027;-68
2022/05/05 11:07:30;;;;;;;3.20;0.90;;;21.00;49.30;;;;;;6272164;28;20437;-68
2022/05/05 11:11:39;;;;;;;5.20;1.23;;;21.00;49.10;;;;;;6253903;28;20059;-68
2022/05/05 11:21:33;;;;;;;4.18;1.10;;;20.80;49.30;;;;;;6255140;28;20033;-68
2022/05/05 11:24:33;;;;;;;1.55;1.00;;;20.80;49.40;;;;;;6253067;28;20128;-68
2022/05/05 11:27:34;;;;;;;1.30;0.80;;;20.80;49.40;;;;;;6270194;28;20051;-68
2022/05/05 11:30:35;;;;;;;4.03;0.77;;;20.80;49.40;;;;;;6242100;28;20029;-68
2022/05/05 11:33:36;;;;;;;2.03;0.90;;;20.80;49.40;;;;;;6241613;28;20029;-66
2022/05/05 11:36:37;;;;;;;1.55;0.70;;;20.80;49.30;;;;;;6246308;28;20542;-67
2022/05/05 11:39:39;;;;;;;1.75;0.90;;;20.80;49.30;;;;;;6266206;28;20031;-68
2022/05/05 11:46:13;;;;;;;0.80;0.73;;;20.90;49.00;;;;;;6239468;28;20037;-68
2022/05/05 11:49:14;;;;;;;2.42;0.75;;;20.90;48.70;;;;;;6270956;28;20036;-68
2022/05/05 11:52:23;;;;;;;3.92;1.27;;;21.00;48.80;;;;;;6271039;28;20028;-66
2022/05/05 11:55:24;;;;;;;2.58;0.75;;;21.00;48.80;;;;;;6271471;28;20071;-68
2022/05/05 12:01:45;;;;;;;0.73;0.60;;;21.00;48.70;;;;;;6268629;28;20033;-67
2022/05/05 12:04:49;;;;;;;0.75;0.60;;;21.00;49.10;;;;;;6269541;28;20051;-67
2022/05/05 12:07:51;;;;;;;1.00;0.75;;;21.00;48.90;;;;;;6228021;28;20030;-67
2022/05/05 12:10:51;;;;;;;2.28;0.77;;;21.00;49.00;;;;;;6250278;28;20032;-68
2022/05/05 12:13:52;;;;;;;1.98;0.55;;;21.00;48.90;;;;;;6270639;28;20400;-68
2022/05/05 12:16:52;;;;;;;3.92;0.70;;;21.00;49.00;;;;;;6268621;28;20025;-68
2022/05/05 12:19:59;;;;;;;8.55;1.00;;;21.00;49.00;;;;;;6271230;28;20391;-68
2022/05/05 12:23:01;;;;;;;3.38;0.77;;;21.00;49.00;;;;;;6239358;28;20025;-68
2022/05/05 12:26:02;;;;;;;2.35;1.05;;;21.00;49.00;;;;;;6251161;28;20031;-68
2022/05/05 12:29:13;;;;;;;2.33;0.70;;;21.00;48.90;;;;;;6270749;28;20036;-69
2022/05/05 12:32:16;;;;;;;1.23;0.70;;;21.00;49.00;;;;;;6268993;28;20159;-68
2022/05/05 12:35:28;;;;;;;1.63;0.60;;;21.00;49.00;;;;;;6250862;28;20021;-68
2022/05/05 12:38:34;;;;;;;1.80;0.70;;;21.00;48.90;;;;;;6270120;28;20033;-68
2022/05/05 12:41:34;;;;;;;6.47;0.80;;;21.00;49.10;;;;;;6270055;28;20029;-68
2022/05/05 12:44:35;;;;;;;1.10;0.75;;;21.00;49.40;;;;;;6270068;28;20024;-68
2022/05/05 12:47:46;;;;;;;1.45;0.60;;;21.10;49.20;;;;;;6269716;28;20083;-68
2022/05/05 12:50:48;;;;;;;1.05;0.70;;;21.10;49.10;;;;;;6269917;28;20044;-68
2022/05/05 13:00:27;;;;;;;1.10;0.77;;;21.10;49.20;;;;;;6270416;28;20487;-67
2022/05/05 13:03:29;;;;;;;1.45;0.75;;;21.10;49.20;;;;;;6245166;28;20021;-67
2022/05/05 13:06:30;;;;;;;4.40;0.68;;;21.10;49.30;;;;;;6269863;28;20072;-68
2022/05/05 13:09:30;;;;;;;1.67;0.82;;;21.10;49.20;;;;;;6267601;28;20570;-68
2022/05/05 13:12:31;;;;;;;1.10;0.75;;;21.10;49.30;;;;;;6258194;28;20063;-68
2022/05/05 13:15:31;;;;;;;1.48;0.70;;;21.10;49.30;;;;;;6268095;28;20021;-68
2022/05/05 13:18:32;;;;;;;3.00;0.70;;;21.10;49.30;;;;;;6268334;28;20048;-68
2022/05/05 13:21:33;;;;;;;1.85;0.63;;;21.10;49.20;;;;;;6267528;28;20081;-68
2022/05/05 13:24:34;;;;;;;2.38;0.65;;;21.10;49.20;;;;;;6244394;28;20032;-68
2022/05/05 13:27:35;;;;;;;4.57;0.77;;;21.00;49.20;;;;;;6251397;28;20024;-68
2022/05/05 13:30:35;;;;;;;1.23;0.60;;;21.00;49.20;;;;;;6268464;28;20119;-68
2022/05/05 13:33:36;;;;;;;2.10;0.88;;;21.10;49.20;;;;;;6250318;28;20123;-68
2022/05/05 13:36:37;;;;;;;1.25;0.88;;;21.10;49.20;;;;;;6250332;28;20067;-67
2022/05/05 13:39:38;;;;;;;1.00;0.63;;;21.10;49.20;;;;;;6250253;28;20056;-67
2022/05/05 13:42:38;;;;;;;0.80;0.60;;;21.00;49.20;;;;;;6268688;28;20025;-68
2022/05/05 13:45:39;;;;;;;0.93;0.70;;;21.10;49.20;;;;;;6250731;28;20104;-67
2022/05/05 13:48:40;;;;;;;3.42;0.70;;;21.10;49.30;;;;;;6250545;28;20396;-66
2022/05/05 13:51:41;;;;;;;1.58;0.63;;;21.10;49.20;;;;;;6268055;28;20079;-67
2022/05/05 13:54:41;;;;;;;3.67;0.60;;;21.10;49.30;;;;;;6267799;28;20021;-67
2022/05/05 13:57:43;;;;;;;0.95;0.65;;;21.10;49.50;;;;;;6267077;28;20450;-67
2022/05/05 14:00:44;;;;;;;1.50;0.70;;;21.20;49.30;;;;;;6268101;28;20111;-67
2022/05/05 14:03:45;;;;;;;0.40;0.40;;;21.20;49.40;;;;;;6268226;28;20518;-67
2022/05/05 14:06:46;;;;;;;0.98;0.70;;;21.10;49.30;;;;;;6267012;28;20021;-67
2022/05/05 14:13:05;;;;;;;0.63;0.55;;;21.20;49.60;;;;;;6266538;28;20530;-67
2022/05/05 14:16:06;;;;;;;0.60;0.60;;;21.10;49.50;;;;;;6267344;28;20036;-67
2022/05/05 14:19:07;;;;;;;1.58;0.73;;;21.10;49.50;;;;;;6267008;28;20040;-67
2022/05/05 14:22:07;;;;;;;1.75;0.65;;;21.00;49.40;;;;;;6267162;28;20032;-68
2022/05/05 14:25:12;;;;;;;0.93;0.70;;;21.10;49.50;;;;;;6271705;28;20021;-67
2022/05/05 14:28:13;;;;;;;1.45;1.00;;;21.00;49.30;;;;;;6271283;28;20029;-67
2022/05/05 14:31:14;;;;;;;1.52;0.80;;;21.00;49.30;;;;;;6271790;28;20041;-67
2022/05/05 14:34:15;;;;;;;1.85;0.70;;;21.00;49.40;;;;;;6253948;28;20560;-68
2022/05/05 14:37:16;;;;;;;1.48;0.85;;;21.00;49.30;;;;;;6271882;28;20033;-68
2022/05/05 14:40:17;;;;;;;0.98;0.70;;;21.00;49.30;;;;;;6271743;28;20113;-68
2022/05/05 14:43:18;;;;;;;3.55;0.60;;;21.00;49.40;;;;;;6272418;28;20124;-67
2022/05/05 14:46:19;;;;;;;1.63;0.63;;;21.00;49.40;;;;;;6254748;28;20025;-67
2022/05/05 14:49:20;;;;;;;3.92;0.80;;;21.00;49.40;;;;;;6271900;28;20092;-67
2022/05/05 14:52:21;;;;;;;1.98;0.80;;;21.00;49.40;;;;;;6272829;28;20078;-67
2022/05/05 14:55:23;;;;;;;2.58;0.70;;;21.00;49.40;;;;;;6272158;28;20033;-68
2022/05/05 14:58:23;;;;;;;3.42;0.77;;;21.00;49.40;;;;;;6272536;28;20482;-68
2022/05/05 15:01:24;;;;;;;1.33;0.82;;;20.90;49.30;;;;;;6270876;28;20028;-67
2022/05/05 15:04:25;;;;;;;1.35;0.70;;;21.00;49.40;;;;;;6272291;28;20040;-67
2022/05/05 15:07:25;;;;;;;1.05;0.65;;;21.00;49.40;;;;;;6272131;28;20033;-66
2022/05/05 15:10:26;;;;;;;1.33;0.73;;;21.00;49.40;;;;;;6271407;28;20415;-66
2022/05/05 15:13:28;;;;;;;1.48;0.60;;;21.00;49.40;;;;;;6272215;28;20064;-67
2022/05/05 15:16:28;;;;;;;3.45;0.98;;;21.00;49.40;;;;;;6272218;28;20017;-67
2022/05/05 15:19:29;;;;;;;4.32;0.90;;;21.00;49.20;;;;;;6254183;28;20095;-67
2022/05/05 15:22:29;;;;;;;1.73;0.80;;;20.90;49.20;;;;;;6262298;28;20026;-67
2022/05/05 15:25:30;;;;;;;2.15;0.98;;;21.00;49.30;;;;;;6250422;28;20022;-68
2022/05/05 15:28:31;;;;;;;3.55;1.10;;;21.00;49.30;;;;;;6246915;28;20162;-67
2022/05/05 15:31:32;;;;;;;1.63;0.75;;;20.90;49.20;;;;;;6247406;28;20021;-67
2022/05/05 15:34:32;;;;;;;1.05;0.70;;;21.00;49.30;;;;;;6247384;28;20439;-68
2022/05/05 15:37:36;;;;;;;4.65;1.45;;;20.90;49.20;;;;;;6269977;28;20055;-67
2022/05/05 15:40:36;;;;;;;3.85;1.50;;;20.90;48.20;;;;;;6270242;28;20440;-68
2022/05/05 15:43:37;;;;;;;4.25;1.13;;;20.90;48.10;;;;;;6271637;28;20082;-68
2022/05/05 15:46:38;;;;;;;4.00;1.30;;;20.90;47.70;;;;;;6271555;28;20039;-67
2022/05/05 15:49:39;;;;;;;6.18;1.67;;;20.80;46.60;;;;;;6253039;28;20120;-67
2022/05/05 15:52:40;;;;;;;7.18;1.63;;;20.80;46.60;;;;;;6271480;28;20519;-66
2022/05/05 15:55:42;;;;;;;8.57;1.88;;;20.80;45.80;;;;;;6271453;28;20066;-67
2022/05/05 15:58:42;;;;;;;5.13;1.70;;;20.80;45.80;;;;;;6253163;28;20024;-67
2022/05/05 16:01:44;;;;;;;3.00;1.10;;;20.90;46.20;;;;;;6271219;28;20029;-68
2022/05/05 16:04:46;;;;;;;4.90;1.23;;;20.90;46.50;;;;;;6252881;28;20552;-68
2022/05/05 16:07:49;;;;;;;3.42;1.13;;;20.90;46.80;;;;;;6270708;28;20021;-67
2022/05/05 16:10:50;;;;;;;3.50;1.10;;;20.90;47.10;;;;;;6269028;28;20052;-68
2022/05/05 16:13:50;;;;;;;3.30;1.10;;;20.90;47.30;;;;;;6270648;28;20036;-66
2022/05/05 16:16:52;;;;;;;2.30;0.90;;;20.90;47.40;;;;;;6270089;28;20036;-67
2022/05/05 16:19:52;;;;;;;1.67;0.80;;;20.90;47.60;;;;;;6268824;28;20514;-67
2022/05/05 16:22:54;;;;;;;2.05;1.08;;;20.90;47.80;;;;;;6258416;28;20031;-67
2022/05/05 16:32:35;;;;;;;2.15;1.02;;;20.90;48.10;;;;;;6243967;28;20029;-65
2022/05/05 16:35:36;;;;;;;1.92;0.88;;;20.90;48.30;;;;;;6244423;28;20049;-68
2022/05/05 16:38:37;;;;;;;1.55;1.00;;;20.90;48.40;;;;;;6244013;28;20022;-67
2022/05/05 16:41:37;;;;;;;3.42;1.13;;;21.00;48.60;;;;;;6243516;28;20025;-68
2022/05/05 16:44:39;;;;;;;1.30;0.80;;;20.90;48.70;;;;;;6250132;28;20021;-68
2022/05/05 16:47:41;;;;;;;2.45;1.10;;;20.90;49.30;;;;;;6267555;28;20119;-67
2022/05/05 16:50:42;;;;;;;3.08;0.90;;;20.90;48.50;;;;;;6250201;28;20017;-68